Time;durP1;ratioP1;P1;durP2;ratioP2;P2;SDS_P1;SDS_P2;PMS_P1;PMS_P2;Temp;Humidity;BMP_temperature;BMP_pressure;BME280_temperature;BME280_humidity;BME280_pressure;Samples;Min_cycle;Max_cycle;Signal;HPM_P1;HPM_P2
2021/09/03 00:02:15;;;;;;;15.23;10.95;;;410.30;2355.20;;;;;;4920527;29;20028;-76
2021/09/03 00:04:42;;;;;;;17.08;11.07;;;410.30;2355.20;;;;;;4920792;29;20024;-75
2021/09/03 00:07:08;;;;;;;16.85;11.05;;;410.20;2355.20;;;;;;4920488;29;20398;-74
2021/09/03 00:09:35;;;;;;;14.63;10.18;;;410.20;2355.20;;;;;;4920380;29;20036;-81
2021/09/03 00:12:02;;;;;;;20.63;11.27;;;410.20;2355.20;;;;;;4920011;29;20454;-75
2021/09/03 00:14:28;;;;;;;17.50;11.75;;;410.20;2355.20;;;;;;4937617;29;20024;-75
2021/09/03 00:16:53;;;;;;;16.38;11.60;;;410.20;2355.20;;;;;;4920076;29;20026;-74
2021/09/03 00:19:19;;;;;;;16.05;10.98;;;410.10;2355.20;;;;;;4920277;29;20027;-78
2021/09/03 00:21:45;;;;;;;17.60;11.68;;;410.20;2355.20;;;;;;4920125;29;20491;-74
2021/09/03 00:24:11;;;;;;;17.25;11.70;;;410.00;2355.20;;;;;;4937000;29;20020;-75
2021/09/03 00:26:39;;;;;;;19.45;11.93;;;410.00;2355.20;;;;;;4937232;29;20146;-81
2021/09/03 00:29:08;;;;;;;16.70;10.98;;;410.00;2355.20;;;;;;4935087;29;20051;-84
2021/09/03 00:31:33;;;;;;;20.13;11.95;;;410.00;2355.20;;;;;;4920574;29;20063;-82
2021/09/03 00:34:02;;;;;;;16.48;11.32;;;409.90;2355.20;;;;;;4937419;29;20054;-82
2021/09/03 00:36:28;;;;;;;19.27;10.90;;;409.90;2355.20;;;;;;4937534;29;20116;-78
2021/09/03 00:38:54;;;;;;;17.67;12.43;;;409.90;2355.20;;;;;;4937126;29;20107;-75
2021/09/03 00:41:20;;;;;;;19.13;12.02;;;409.80;2355.20;;;;;;4920115;29;20414;-75
2021/09/03 00:43:46;;;;;;;18.95;11.50;;;409.70;2355.20;;;;;;4937491;29;20136;-81
2021/09/03 00:46:12;;;;;;;16.85;10.98;;;409.70;2355.20;;;;;;4936980;29;20032;-77
2021/09/03 00:48:37;;;;;;;17.95;11.02;;;409.70;2355.20;;;;;;4937191;29;20115;-77
2021/09/03 00:51:03;;;;;;;20.38;11.65;;;409.70;2355.20;;;;;;4920090;29;20031;-82
2021/09/03 00:53:31;;;;;;;16.67;10.80;;;409.70;2355.20;;;;;;4920364;29;20052;-76
2021/09/03 00:55:58;;;;;;;16.48;11.20;;;409.70;2355.20;;;;;;4936746;29;20024;-75
2021/09/03 00:58:24;;;;;;;14.80;10.75;;;409.70;2355.20;;;;;;4919790;29;20039;-77
2021/09/03 01:00:53;;;;;;;17.95;11.75;;;409.60;2355.20;;;;;;4917853;29;20044;-82
2021/09/03 01:03:20;;;;;;;20.88;12.02;;;409.70;2355.20;;;;;;4920316;29;20028;-80
2021/09/03 01:05:46;;;;;;;20.60;12.40;;;409.60;2355.20;;;;;;4937012;29;20019;-82
2021/09/03 01:08:12;;;;;;;19.90;12.10;;;409.60;2355.20;;;;;;4937046;29;20024;-83
2021/09/03 01:10:39;;;;;;;16.40;12.30;;;409.60;2355.20;;;;;;4919789;29;20031;-81
2021/09/03 01:13:05;;;;;;;16.75;11.82;;;409.60;2355.20;;;;;;4919588;29;20139;-77
2021/09/03 01:15:34;;;;;;;19.10;13.00;;;409.60;2355.20;;;;;;4919674;29;20036;-77
2021/09/03 01:17:59;;;;;;;18.80;11.30;;;384.90;2329.60;;;;;;4919175;29;20048;-77
2021/09/03 01:20:28;;;;;;;15.80;10.88;;;384.90;2329.60;;;;;;4919644;29;20040;-77
2021/09/03 01:22:54;;;;;;;18.23;11.60;;;384.90;2329.60;;;;;;4933809;29;20111;-81
2021/09/03 01:25:20;;;;;;;17.45;11.00;;;384.90;2329.60;;;;;;4919345;29;20452;-75
2021/09/03 01:27:46;;;;;;;16.88;11.00;;;384.90;2329.60;;;;;;4918991;29;20043;-76
2021/09/03 01:30:15;;;;;;;19.08;11.60;;;384.90;2329.60;;;;;;4916434;29;20466;-75
2021/09/03 01:32:42;;;;;;;18.20;11.50;;;384.90;2329.60;;;;;;4919177;29;20105;-75
2021/09/03 01:35:09;;;;;;;20.80;10.15;;;409.60;2355.20;;;;;;4936012;29;20055;-76
2021/09/03 01:37:35;;;;;;;23.67;11.45;;;409.70;2355.20;;;;;;4933577;29;20094;-75
2021/09/03 01:40:02;;;;;;;17.80;10.68;;;409.80;2355.20;;;;;;4935795;29;20102;-75
2021/09/03 01:42:28;;;;;;;20.08;11.85;;;409.90;2355.20;;;;;;4919021;29;20433;-76
2021/09/03 01:44:53;;;;;;;15.25;10.70;;;409.90;2355.20;;;;;;4916341;29;20032;-76
2021/09/03 01:47:19;;;;;;;18.23;11.30;;;409.70;2355.20;;;;;;4918641;29;20052;-76
2021/09/03 01:49:45;;;;;;;18.25;11.75;;;409.70;2355.20;;;;;;4935640;29;20035;-77
2021/09/03 01:52:13;;;;;;;21.17;11.93;;;409.60;2355.20;;;;;;4918433;29;20106;-74
2021/09/03 01:54:39;;;;;;;18.40;11.00;;;409.60;2355.20;;;;;;4935771;29;20027;-81
2021/09/03 01:57:05;;;;;;;20.23;11.55;;;384.90;2329.60;;;;;;4935527;29;20493;-77
2021/09/03 02:12:01;;;;;;;18.58;11.82;;;384.50;2329.60;;;;;;4881488;29;20057;-77
2021/09/03 02:14:26;;;;;;;20.85;12.70;;;384.40;2329.60;;;;;;4892066;29;20020;-75
2021/09/03 02:16:52;;;;;;;18.63;11.98;;;384.40;2329.60;;;;;;4901727;29;20360;-76
2021/09/03 02:19:18;;;;;;;18.98;11.55;;;384.40;2329.60;;;;;;4888191;29;20119;-77
2021/09/03 02:21:44;;;;;;;16.23;10.95;;;384.40;2329.60;;;;;;4888303;29;20024;-81
2021/09/03 02:24:09;;;;;;;21.58;11.65;;;384.40;2329.60;;;;;;4882020;29;20115;-82
2021/09/03 02:26:35;;;;;;;19.25;12.15;;;384.50;2329.60;;;;;;4889115;29;20024;-78
2021/09/03 02:29:01;;;;;;;19.95;12.32;;;384.60;2329.60;;;;;;4887818;29;20024;-78
2021/09/03 02:31:26;;;;;;;21.30;12.27;;;384.70;2329.60;;;;;;4881845;29;20036;-80
2021/09/03 02:33:52;;;;;;;18.60;11.45;;;384.70;2329.60;;;;;;4886985;29;20029;-76
2021/09/03 02:36:18;;;;;;;24.95;12.43;;;384.70;2329.60;;;;;;4904492;29;20398;-76
2021/09/03 02:38:44;;;;;;;22.38;12.73;;;384.70;2329.60;;;;;;4886498;29;20452;-76
2021/09/03 02:41:10;;;;;;;23.35;12.65;;;384.70;2329.60;;;;;;4886596;29;20110;-75
2021/09/03 02:43:36;;;;;;;17.85;11.68;;;384.90;2329.60;;;;;;4881319;29;20112;-80
2021/09/03 02:46:02;;;;;;;19.92;12.02;;;384.90;2329.60;;;;;;4884234;29;20116;-76
2021/09/03 02:48:28;;;;;;;20.90;12.43;;;409.60;2355.20;;;;;;4886875;29;20035;-77
2021/09/03 02:50:54;;;;;;;23.92;12.77;;;384.90;2329.60;;;;;;4885597;29;20116;-78
2021/09/03 02:53:19;;;;;;;19.52;12.45;;;384.90;2329.60;;;;;;4879714;29;20511;-80
2021/09/03 02:55:45;;;;;;;18.20;11.73;;;384.80;2329.60;;;;;;4888154;29;20027;-75
2021/09/03 02:58:11;;;;;;;22.17;12.55;;;384.80;2329.60;;;;;;4891780;29;20391;-78
2021/09/03 03:00:37;;;;;;;20.58;11.68;;;384.90;2329.60;;;;;;4905655;29;20095;-80
2021/09/03 03:03:03;;;;;;;20.20;12.68;;;409.60;2355.20;;;;;;4905462;29;20118;-75
2021/09/03 03:05:28;;;;;;;18.92;12.07;;;409.70;2355.20;;;;;;4899210;29;20025;-76
2021/09/03 03:07:54;;;;;;;18.20;12.48;;;409.70;2355.20;;;;;;4905737;29;20032;-76
2021/09/03 03:10:20;;;;;;;20.30;11.95;;;409.90;2355.20;;;;;;4905384;29;20041;-78
2021/09/03 03:12:47;;;;;;;19.17;10.93;;;409.90;2355.20;;;;;;4917663;29;20115;-77
2021/09/03 03:15:13;;;;;;;24.35;11.77;;;409.90;2355.20;;;;;;4906146;29;20487;-77
2021/09/03 03:17:39;;;;;;;19.67;11.20;;;409.90;2355.20;;;;;;4901680;29;20079;-78
2021/09/03 03:20:05;;;;;;;20.38;11.80;;;409.90;2355.20;;;;;;4907848;29;20067;-78
2021/09/03 03:22:31;;;;;;;19.85;12.25;;;409.90;2355.20;;;;;;4916607;29;20084;-81
2021/09/03 03:24:56;;;;;;;17.67;12.35;;;409.70;2355.20;;;;;;4886589;29;20080;-82
2021/09/03 03:27:22;;;;;;;17.08;12.35;;;409.60;2355.20;;;;;;4881144;29;20092;-77
2021/09/03 03:29:48;;;;;;;20.50;12.85;;;384.90;2329.60;;;;;;4886820;29;20021;-78
2021/09/03 03:32:13;;;;;;;16.55;12.05;;;384.90;2329.60;;;;;;4888087;29;20047;-79
2021/09/03 03:34:39;;;;;;;18.15;11.98;;;384.80;2329.60;;;;;;4886283;29;20040;-80
2021/09/03 03:37:05;;;;;;;22.50;12.27;;;384.90;2329.60;;;;;;4879492;29;20033;-77
2021/09/03 03:39:31;;;;;;;19.90;12.15;;;384.80;2329.60;;;;;;4881829;29;20523;-81
2021/09/03 03:41:56;;;;;;;17.52;12.10;;;384.70;2329.60;;;;;;4884803;29;20131;-78
2021/09/03 03:44:22;;;;;;;19.58;11.63;;;384.90;2329.60;;;;;;4887818;29;20079;-77
2021/09/03 03:46:48;;;;;;;19.75;12.27;;;384.90;2329.60;;;;;;4881800;29;20044;-77
2021/09/03 03:49:13;;;;;;;17.10;11.90;;;384.90;2329.60;;;;;;4879995;29;20039;-77
2021/09/03 03:51:39;;;;;;;19.85;12.40;;;384.80;2329.60;;;;;;4899801;29;20060;-81
2021/09/03 03:54:05;;;;;;;18.63;12.52;;;384.90;2329.60;;;;;;4885646;29;20025;-78
2021/09/03 03:56:31;;;;;;;21.33;13.82;;;384.90;2329.60;;;;;;4886537;29;20017;-78
2021/09/03 03:58:57;;;;;;;16.58;12.43;;;384.90;2329.60;;;;;;4885771;29;20075;-78
2021/09/03 04:01:22;;;;;;;20.42;11.65;;;384.90;2329.60;;;;;;4879305;29;20526;-79
2021/09/03 04:03:48;;;;;;;20.13;12.23;;;384.90;2329.60;;;;;;4903365;29;20032;-83
2021/09/03 04:06:14;;;;;;;17.63;11.93;;;384.90;2329.60;;;;;;4903490;29;20022;-78
2021/09/03 04:08:40;;;;;;;16.65;11.48;;;409.60;2355.20;;;;;;4886023;29;20487;-78
2021/09/03 04:11:06;;;;;;;17.88;12.50;;;384.90;2329.60;;;;;;4894352;29;20521;-81
2021/09/03 04:13:31;;;;;;;17.52;12.75;;;384.90;2329.60;;;;;;4901682;29;20032;-79
2021/09/03 04:15:57;;;;;;;19.83;11.48;;;384.90;2329.60;;;;;;4906555;29;20028;-79
2021/09/03 04:18:23;;;;;;;18.63;11.52;;;409.60;2355.20;;;;;;4910624;29;20033;-81
2021/09/03 04:20:49;;;;;;;20.00;12.32;;;384.90;2329.60;;;;;;4892369;29;20020;-82
2021/09/03 04:23:14;;;;;;;17.27;11.65;;;409.70;2355.20;;;;;;4907359;29;20079;-78
2021/09/03 04:25:40;;;;;;;22.70;12.23;;;409.70;2355.20;;;;;;4910045;29;20462;-77
2021/09/03 04:28:06;;;;;;;16.60;10.95;;;409.90;2355.20;;;;;;4891950;29;20111;-79
2021/09/03 04:30:32;;;;;;;16.73;10.45;;;410.00;2355.20;;;;;;4910878;29;20059;-81
2021/09/03 04:32:58;;;;;;;19.73;10.43;;;410.00;2355.20;;;;;;4891105;29;20384;-77
2021/09/03 04:35:24;;;;;;;19.23;10.63;;;410.00;2355.20;;;;;;4892803;29;20028;-80
2021/09/03 04:37:51;;;;;;;16.80;10.77;;;410.00;2355.20;;;;;;4891792;29;20127;-82
2021/09/03 04:40:18;;;;;;;20.98;10.68;;;410.00;2355.20;;;;;;4906100;29;20045;-77
2021/09/03 04:42:44;;;;;;;22.73;12.35;;;410.10;2355.20;;;;;;4892566;29;20024;-82
2021/09/03 04:45:11;;;;;;;17.40;10.75;;;410.10;2355.20;;;;;;4890289;29;20497;-78
2021/09/03 04:47:37;;;;;;;19.35;10.95;;;410.20;2355.20;;;;;;4907415;29;20570;-78
2021/09/03 04:50:05;;;;;;;16.95;10.80;;;410.20;2355.20;;;;;;4892670;29;20063;-79
2021/09/03 04:52:31;;;;;;;19.20;11.02;;;410.30;2355.20;;;;;;4892210;29;20023;-88
2021/09/03 04:54:57;;;;;;;17.95;10.18;;;410.30;2355.20;;;;;;4890508;29;20123;-86
2021/09/03 04:57:23;;;;;;;18.92;10.75;;;410.20;2355.20;;;;;;4909314;29;20024;-85
2021/09/03 04:59:49;;;;;;;18.35;10.60;;;410.30;2355.20;;;;;;4908262;29;20025;-83
2021/09/03 05:02:15;;;;;;;20.58;11.13;;;410.30;2355.20;;;;;;4907666;29;20033;-80
2021/09/03 05:04:40;;;;;;;17.35;11.43;;;410.30;2355.20;;;;;;4905030;29;20092;-81
2021/09/03 05:07:06;;;;;;;19.83;11.98;;;410.30;2355.20;;;;;;4892121;29;20050;-78
2021/09/03 05:09:32;;;;;;;21.77;10.60;;;410.40;2355.20;;;;;;4901999;29;20132;-83
2021/09/03 05:11:58;;;;;;;16.35;11.00;;;410.50;2355.20;;;;;;4892199;29;20049;-87
2021/09/03 05:14:23;;;;;;;16.75;9.82;;;410.50;2355.20;;;;;;4906497;29;20029;-81
2021/09/03 05:16:49;;;;;;;16.33;10.85;;;410.50;2355.20;;;;;;4891500;29;20367;-84
2021/09/03 05:19:15;;;;;;;21.08;11.80;;;435.20;2355.20;;;;;;4892038;29;20036;-84
2021/09/03 05:21:40;;;;;;;14.52;10.52;;;435.30;2355.20;;;;;;4890455;29;20024;-81
2021/09/03 05:24:06;;;;;;;19.42;10.50;;;435.30;2355.20;;;;;;4908675;29;20550;-77
2021/09/03 05:26:32;;;;;;;16.70;10.90;;;435.30;2355.20;;;;;;4906937;29;20060;-78
2021/09/03 05:28:58;;;;;;;15.18;11.10;;;435.30;2355.20;;;;;;4891945;29;20456;-77
2021/09/03 05:31:23;;;;;;;21.77;11.70;;;435.40;2355.20;;;;;;4907538;29;20165;-77
2021/09/03 05:33:49;;;;;;;17.75;11.43;;;435.50;2355.20;;;;;;4890619;29;20016;-77
2021/09/03 05:36:15;;;;;;;17.80;11.00;;;435.50;2355.20;;;;;;4890572;29;20032;-77
2021/09/03 05:38:40;;;;;;;21.27;12.05;;;435.60;2355.20;;;;;;4891906;29;20483;-77
2021/09/03 05:41:06;;;;;;;17.48;10.32;;;435.60;2355.20;;;;;;4909976;29;20169;-78
2021/09/03 05:43:32;;;;;;;16.15;12.02;;;435.60;2355.20;;;;;;4894510;29;20123;-80
2021/09/03 05:45:58;;;;;;;16.35;10.80;;;435.70;2355.20;;;;;;4882101;29;20025;-78
2021/09/03 05:48:24;;;;;;;19.95;11.38;;;435.70;2355.20;;;;;;4881518;29;20033;-76
2021/09/03 05:50:49;;;;;;;18.48;12.20;;;435.80;2355.20;;;;;;4881802;29;20020;-79
2021/09/03 05:53:15;;;;;;;17.25;11.20;;;435.60;2355.20;;;;;;4898270;29;20037;-78
2021/09/03 05:55:41;;;;;;;19.52;12.13;;;435.70;2355.20;;;;;;4912577;29;20041;-79
2021/09/03 05:58:07;;;;;;;19.08;11.45;;;435.70;2355.20;;;;;;4881477;29;20384;-78
2021/09/03 06:00:33;;;;;;;17.73;11.38;;;435.80;2355.20;;;;;;4898169;29;20025;-78
2021/09/03 06:02:59;;;;;;;18.58;10.95;;;435.80;2355.20;;;;;;4892185;29;20394;-79
2021/09/03 06:05:25;;;;;;;14.70;9.85;;;435.90;2355.20;;;;;;4900870;29;20021;-78
2021/09/03 06:07:51;;;;;;;15.40;10.45;;;435.90;2355.20;;;;;;4898363;29;20055;-80
2021/09/03 06:10:16;;;;;;;16.30;10.48;;;435.90;2355.20;;;;;;4880991;29;20496;-81
2021/09/03 06:12:42;;;;;;;14.70;10.60;;;436.10;2355.20;;;;;;4898223;29;20398;-74
2021/09/03 06:15:09;;;;;;;12.50;9.40;;;436.10;2355.20;;;;;;4898069;29;20080;-79
2021/09/03 06:17:36;;;;;;;15.65;10.40;;;436.10;2355.20;;;;;;4898020;29;20155;-79
2021/09/03 06:20:03;;;;;;;16.38;10.70;;;460.80;2380.80;;;;;;4881013;29;20032;-76
2021/09/03 06:22:29;;;;;;;14.30;10.68;;;460.90;2380.80;;;;;;4898319;29;20048;-80
2021/09/03 06:24:55;;;;;;;15.50;11.23;;;461.00;2380.80;;;;;;4897675;29;20446;-77
2021/09/03 06:27:20;;;;;;;13.13;9.35;;;461.00;2380.80;;;;;;4897734;29;20017;-74
2021/09/03 06:29:47;;;;;;;17.58;11.25;;;461.00;2380.80;;;;;;4881230;29;20024;-75
2021/09/03 06:32:31;;;;;;;12.70;9.13;;;461.10;2380.80;;;;;;4897481;29;20096;-75
2021/09/03 06:35:00;;;;;;;18.52;10.25;;;461.20;2380.80;;;;;;4880897;29;20044;-75
2021/09/03 06:37:28;;;;;;;16.90;10.13;;;461.20;2380.80;;;;;;4880484;29;20512;-77
2021/09/03 06:39:54;;;;;;;14.38;9.05;;;461.30;2380.80;;;;;;4897287;29;20040;-74
2021/09/03 06:42:20;;;;;;;17.35;10.20;;;461.20;2380.80;;;;;;4881024;29;20036;-75
2021/09/03 06:44:47;;;;;;;11.73;9.00;;;461.30;2380.80;;;;;;4880547;29;20032;-75
2021/09/03 06:47:13;;;;;;;12.93;8.38;;;461.50;2380.80;;;;;;4880897;29;20072;-85
2021/09/03 06:49:40;;;;;;;10.75;8.00;;;461.50;2380.80;;;;;;4880738;29;20040;-80
2021/09/03 06:52:07;;;;;;;14.43;7.40;;;461.60;2380.80;;;;;;4881027;29;20033;-76
2021/09/03 06:54:33;;;;;;;11.43;7.78;;;461.70;2380.80;;;;;;4880660;29;20471;-85
2021/09/03 06:57:00;;;;;;;10.70;7.20;;;461.70;2380.80;;;;;;4897566;29;20031;-78
2021/09/03 06:59:27;;;;;;;12.20;7.63;;;461.70;2380.80;;;;;;4880536;29;20032;-76
2021/09/03 07:01:52;;;;;;;11.30;7.70;;;461.70;2380.80;;;;;;4897345;29;20502;-81
2021/09/03 07:04:18;;;;;;;12.93;7.32;;;461.70;2380.80;;;;;;4887783;29;20067;-76
2021/09/03 07:06:44;;;;;;;12.27;7.93;;;486.40;2380.80;;;;;;4915956;29;20032;-77
2021/09/03 07:09:10;;;;;;;17.60;8.00;;;486.40;2380.80;;;;;;4915807;29;20367;-76
2021/09/03 07:11:36;;;;;;;13.73;7.70;;;486.50;2380.80;;;;;;4909868;29;20051;-74
2021/09/03 07:14:03;;;;;;;12.07;7.45;;;486.60;2380.80;;;;;;4880481;29;20029;-75
2021/09/03 07:16:30;;;;;;;11.85;7.53;;;486.80;2380.80;;;;;;4890550;29;20032;-76
2021/09/03 07:18:56;;;;;;;10.30;6.85;;;486.90;2380.80;;;;;;4915834;29;20043;-78
2021/09/03 07:21:23;;;;;;;8.88;6.45;;;486.90;2380.80;;;;;;4915503;29;20036;-78
2021/09/03 07:23:48;;;;;;;9.57;6.30;;;487.00;2380.80;;;;;;4915026;29;20028;-76
2021/09/03 07:26:14;;;;;;;8.93;5.90;;;487.10;2380.80;;;;;;4915679;29;20132;-79
2021/09/03 07:28:40;;;;;;;11.27;5.63;;;487.20;2380.80;;;;;;4916330;29;20051;-78
2021/09/03 07:31:06;;;;;;;10.77;6.65;;;487.30;2380.80;;;;;;4915585;29;20039;-77
2021/09/03 07:33:32;;;;;;;8.93;6.68;;;487.30;2380.80;;;;;;4898425;29;20024;-81
2021/09/03 07:35:57;;;;;;;10.32;6.15;;;512.00;2380.80;;;;;;4910082;29;20029;-78
2021/09/03 07:38:23;;;;;;;8.18;5.45;;;512.10;2380.80;;;;;;4911978;29;20490;-80
2021/09/03 07:40:49;;;;;;;13.65;5.97;;;512.20;2380.80;;;;;;4908604;29;20033;-79
2021/09/03 07:43:16;;;;;;;9.40;5.65;;;512.40;2380.80;;;;;;4906988;29;20028;-78
2021/09/03 07:45:42;;;;;;;12.50;6.88;;;512.40;2380.80;;;;;;4904834;29;20072;-81
2021/09/03 07:48:08;;;;;;;10.20;4.90;;;512.50;2380.80;;;;;;4906507;29;20482;-81
2021/09/03 07:50:34;;;;;;;6.88;4.18;;;512.70;2380.80;;;;;;4890242;29;20037;-78
2021/09/03 07:53:02;;;;;;;8.30;4.53;;;512.80;2252.80;;;;;;4892029;29;20043;-78
2021/09/03 07:55:27;;;;;;;11.23;6.22;;;512.90;2278.40;;;;;;4883739;29;20075;-81
2021/09/03 07:57:53;;;;;;;11.43;5.22;;;537.60;2329.60;;;;;;4883712;29;20558;-79
2021/09/03 08:00:19;;;;;;;9.35;4.28;;;537.70;2252.80;;;;;;4888538;29;20298;-81
2021/09/03 08:02:45;;;;;;;6.35;4.18;;;537.70;2304.00;;;;;;4892795;29;20550;-82
2021/09/03 08:05:11;;;;;;;7.43;3.72;;;537.80;2227.20;;;;;;4909492;29;20091;-81
2021/09/03 08:07:41;;;;;;;8.55;4.20;;;537.80;2176.00;;;;;;4891861;29;20028;-81
2021/09/03 08:10:11;;;;;;;8.50;3.80;;;537.80;2150.40;;;;;;4888802;29;20094;-82
2021/09/03 08:12:38;;;;;;;10.32;4.25;;;537.80;2150.40;;;;;;4883357;29;20024;-81
2021/09/03 08:15:06;;;;;;;7.07;4.10;;;537.90;2124.80;;;;;;4900095;29;20041;-78
2021/09/03 08:17:32;;;;;;;12.38;4.93;;;538.00;2150.40;;;;;;4883329;29;20039;-82
2021/09/03 08:19:58;;;;;;;6.63;3.58;;;537.90;2124.80;;;;;;4900257;29;20036;-80
2021/09/03 08:22:24;;;;;;;5.68;3.50;;;538.00;2124.80;;;;;;4899998;29;20032;-79
2021/09/03 08:24:50;;;;;;;10.45;4.18;;;538.00;2073.60;;;;;;4900239;29;20087;-81
2021/09/03 08:27:15;;;;;;;8.32;4.22;;;538.10;2099.20;;;;;;4883284;29;20025;-87
2021/09/03 08:29:43;;;;;;;5.30;4.07;;;538.20;2099.20;;;;;;4901004;29;20028;-89
2021/09/03 08:32:10;;;;;;;8.27;5.00;;;538.30;2099.20;;;;;;4883804;29;20028;-81
2021/09/03 08:34:35;;;;;;;6.10;3.70;;;538.20;2150.40;;;;;;4883677;29;20533;-84
2021/09/03 08:37:01;;;;;;;8.90;4.10;;;538.30;2048.00;;;;;;4882980;29;20033;-79
2021/09/03 08:39:27;;;;;;;9.18;4.65;;;538.30;2022.40;;;;;;4899676;29;20372;-81
2021/09/03 08:41:53;;;;;;;6.63;3.45;;;538.30;2073.60;;;;;;4899529;29;20395;-81
2021/09/03 08:44:19;;;;;;;9.00;3.92;;;538.40;1996.80;;;;;;4885358;29;20028;-81
2021/09/03 08:46:45;;;;;;;6.95;3.95;;;538.30;2099.20;;;;;;4909530;29;20084;-80
2021/09/03 08:49:11;;;;;;;7.20;3.67;;;538.40;2022.40;;;;;;4891366;29;20028;-79
2021/09/03 08:51:37;;;;;;;5.22;3.70;;;538.40;2048.00;;;;;;4913484;29;20032;-85
2021/09/03 08:54:04;;;;;;;12.48;4.03;;;538.50;1996.80;;;;;;4901781;29;20025;-81
2021/09/03 08:56:30;;;;;;;8.02;3.63;;;538.50;2048.00;;;;;;4918668;29;20087;-83
2021/09/03 08:58:55;;;;;;;6.63;3.70;;;538.50;2099.20;;;;;;4904562;29;20032;-84
2021/09/03 09:01:21;;;;;;;7.80;4.45;;;563.20;2099.20;;;;;;4892653;29;20535;-79
2021/09/03 09:03:49;;;;;;;7.93;4.22;;;563.30;2022.40;;;;;;4889441;29;20087;-81
2021/09/03 09:06:25;;;;;;;5.68;2.80;;;563.40;2022.40;;;;;;4915759;29;20024;-82
2021/09/03 09:08:56;;;;;;;8.05;3.78;;;563.40;1894.40;;;;;;4892853;29;20475;-82
2021/09/03 09:11:26;;;;;;;8.05;4.20;;;563.60;1920.00;;;;;;4890813;29;20115;-81
2021/09/03 09:13:56;;;;;;;6.97;3.08;;;563.70;1843.20;;;;;;4907227;29;20040;-82
2021/09/03 09:16:23;;;;;;;6.57;3.15;;;563.80;1766.40;;;;;;4891301;29;20017;-80
2021/09/03 09:18:51;;;;;;;12.45;3.33;;;563.90;1740.80;;;;;;4895031;29;20036;-83
2021/09/03 09:21:37;;;;;;;5.78;2.45;;;564.00;1817.60;;;;;;4918071;29;20028;-80
2021/09/03 09:24:09;;;;;;;4.82;2.90;;;564.00;1664.00;;;;;;4916535;29;20040;-80
2021/09/03 09:26:51;;;;;;;3.95;2.55;;;564.10;1638.40;;;;;;4917994;29;20394;-84
2021/09/03 09:29:19;;;;;;;2.90;2.00;;;588.90;1689.60;;;;;;4911927;29;20029;-81
2021/09/03 09:31:48;;;;;;;4.07;2.13;;;588.90;1561.60;;;;;;4916995;29;20028;-83
2021/09/03 09:34:22;;;;;;;3.33;2.00;;;589.10;1536.00;;;;;;4889250;29;20119;-79
2021/09/03 09:36:52;;;;;;;5.80;2.63;;;589.20;1612.80;;;;;;4906925;29;20040;-82
2021/09/03 09:39:18;;;;;;;4.45;2.83;;;589.20;1638.40;;;;;;4906264;29;20045;-82
2021/09/03 09:41:46;;;;;;;6.13;2.55;;;589.30;1715.20;;;;;;4881753;29;20099;-86
2021/09/03 09:44:12;;;;;;;3.40;2.10;;;589.60;1715.20;;;;;;4887411;29;20040;-83
2021/09/03 09:46:38;;;;;;;4.22;2.33;;;589.70;1536.00;;;;;;4916450;29;20043;-82
2021/09/03 09:49:08;;;;;;;4.28;2.58;;;614.40;1587.20;;;;;;4915961;29;20033;-81
2021/09/03 09:51:39;;;;;;;7.25;2.50;;;614.50;1587.20;;;;;;4899657;29;20521;-81
2021/09/03 09:54:10;;;;;;;4.10;2.25;;;614.60;1433.60;;;;;;4900152;29;20037;-83
2021/09/03 09:56:42;;;;;;;3.13;2.05;;;614.60;1459.20;;;;;;4916350;29;20028;-84
2021/09/03 09:59:09;;;;;;;4.78;2.05;;;614.80;1484.80;;;;;;4918728;29;20032;-84
2021/09/03 10:01:37;;;;;;;3.67;2.42;;;614.80;1484.80;;;;;;4917203;29;20027;-78
2021/09/03 10:04:12;;;;;;;4.82;2.33;;;615.00;1536.00;;;;;;4902878;29;20120;-79
2021/09/03 10:06:40;;;;;;;4.13;2.33;;;615.00;1510.40;;;;;;4900434;29;20362;-87
2021/09/03 10:09:09;;;;;;;4.57;2.33;;;615.20;1536.00;;;;;;4896034;29;20044;-80
2021/09/03 10:11:41;;;;;;;2.88;2.10;;;640.10;1484.80;;;;;;4915065;29;20077;-83
2021/09/03 10:14:08;;;;;;;4.07;2.10;;;640.20;1305.60;;;;;;4893899;29;20029;-82
2021/09/03 10:16:34;;;;;;;6.65;1.88;;;640.20;1408.00;;;;;;4909221;29;20028;-80
2021/09/03 10:19:04;;;;;;;3.38;1.80;;;640.20;1254.40;;;;;;4906263;29;20119;-81
2021/09/03 10:21:33;;;;;;;3.72;1.92;;;640.50;1331.20;;;;;;4910525;29;20024;-81
2021/09/03 10:24:06;;;;;;;3.10;2.05;;;640.30;1356.80;;;;;;4895424;29;20028;-81
2021/09/03 10:26:44;;;;;;;3.00;1.90;;;640.20;1331.20;;;;;;4916733;29;20056;-78
2021/09/03 10:29:16;;;;;;;3.42;1.75;;;640.60;1228.80;;;;;;4899692;29;20028;-82
2021/09/03 10:32:17;;;;;;;3.00;1.75;;;640.90;1177.60;;;;;;4915380;29;20024;-81
2021/09/03 10:34:55;;;;;;;3.20;2.00;;;665.70;1203.20;;;;;;4905890;29;20475;-81
2021/09/03 10:37:30;;;;;;;4.70;2.35;;;666.00;1228.80;;;;;;4888370;29;20040;-86
2021/09/03 10:40:07;;;;;;;3.17;2.10;;;666.10;1280.00;;;;;;4888233;29;20173;-81
2021/09/03 10:42:49;;;;;;;3.60;2.35;;;666.50;1305.60;;;;;;4905661;29;20027;-84
2021/09/03 10:45:37;;;;;;;3.78;1.95;;;666.50;1254.40;;;;;;4888752;29;20102;-80
2021/09/03 10:48:10;;;;;;;4.00;2.50;;;691.20;1254.40;;;;;;4914984;29;20048;-79
2021/09/03 10:50:36;;;;;;;3.60;2.25;;;691.30;1152.00;;;;;;4914938;29;20032;-80
2021/09/03 10:55:57;;;;;;;3.28;2.22;;;666.00;1280.00;;;;;;4915597;29;20116;-79
2021/09/03 10:58:39;;;;;;;5.85;2.60;;;665.70;1280.00;;;;;;4857111;29;20041;-78
2021/09/03 11:03:44;;;;;;;5.18;2.25;;;666.50;1305.60;;;;;;4855399;29;20041;-78
2021/09/03 11:06:15;;;;;;;4.30;2.13;;;666.50;1254.40;;;;;;4838953;29;20030;-78
2021/09/03 11:08:46;;;;;;;5.20;2.10;;;691.40;1228.80;;;;;;4839078;29;20393;-79
2021/09/03 11:11:30;;;;;;;4.38;2.28;;;691.50;1228.80;;;;;;4823720;29;20107;-78
2021/09/03 11:14:07;;;;;;;3.25;2.20;;;691.70;1126.40;;;;;;4823530;29;20098;-79
2021/09/03 11:16:43;;;;;;;4.80;2.40;;;691.80;1152.00;;;;;;4839018;29;20492;-76
2021/09/03 11:19:18;;;;;;;;;;;691.90;1254.40;;;;;;4823841;29;20050;-77
2021/09/03 11:21:50;;;;;;;5.10;2.60;;;691.70;1177.60;;;;;;4847588;29;20294;-79
2021/09/03 11:24:18;;;;;;;3.50;2.00;;;691.80;1203.20;;;;;;4846734;29;20499;-79
2021/09/03 11:26:46;;;;;;;5.13;2.45;;;692.00;1254.40;;;;;;4848005;29;20543;-77
2021/09/03 11:29:46;;;;;;;3.97;2.30;;;692.00;1254.40;;;;;;4847729;29;20197;-82
2021/09/03 11:32:16;;;;;;;3.47;2.10;;;692.10;1152.00;;;;;;4848544;29;20117;-83
2021/09/03 11:34:58;;;;;;;3.67;2.58;;;717.00;1382.40;;;;;;4867400;29;20044;-83
2021/09/03 11:37:42;;;;;;;4.45;2.85;;;716.90;1228.80;;;;;;4907583;29;20033;-82
2021/09/03 11:40:14;;;;;;;5.15;2.83;;;717.10;1152.00;;;;;;4905575;29;20037;-79
2021/09/03 11:42:43;;;;;;;5.38;2.85;;;717.20;1152.00;;;;;;4909698;29;20079;-79
2021/09/03 11:45:17;;;;;;;5.22;2.78;;;717.20;1177.60;;;;;;4915591;29;20028;-80
2021/09/03 11:47:54;;;;;;;5.00;2.67;;;717.10;1126.40;;;;;;4915305;29;20111;-79
2021/09/03 11:50:33;;;;;;;4.70;2.08;;;717.10;1152.00;;;;;;4915318;29;20052;-79
2021/09/03 11:53:02;;;;;;;4.82;2.95;;;717.20;1075.20;;;;;;4912329;29;20043;-79
2021/09/03 11:55:33;;;;;;;4.90;2.67;;;717.30;1126.40;;;;;;4905224;29;20032;-79
2021/09/03 11:58:00;;;;;;;5.93;2.75;;;717.30;1100.80;;;;;;4904787;29;20056;-78
2021/09/03 12:00:36;;;;;;;10.20;2.75;;;717.40;1126.40;;;;;;4906536;29;20104;-79
2021/09/03 12:03:04;;;;;;;6.50;2.78;;;717.50;1100.80;;;;;;4911141;29;20522;-80
2021/09/03 12:05:30;;;;;;;7.13;3.10;;;717.50;1126.40;;;;;;4898766;29;20032;-80
2021/09/03 12:08:05;;;;;;;7.45;2.83;;;717.50;1126.40;;;;;;4882467;29;20039;-82
2021/09/03 12:10:51;;;;;;;6.07;3.00;;;717.50;1152.00;;;;;;4915508;29;20052;-84
2021/09/03 12:13:27;;;;;;;3.80;2.35;;;717.50;1075.20;;;;;;4915586;29;20061;-80
2021/09/03 12:16:23;;;;;;;3.42;2.30;;;717.50;1100.80;;;;;;4913836;29;20075;-79
2021/09/03 12:18:53;;;;;;;7.50;3.00;;;717.60;1075.20;;;;;;4856947;29;20041;-78
2021/09/03 12:21:25;;;;;;;5.45;3.38;;;717.70;1049.60;;;;;;4857339;29;20102;-80
2021/09/03 12:23:54;;;;;;;4.90;2.60;;;717.70;1049.60;;;;;;4841642;29;20037;-81
2021/09/03 12:26:22;;;;;;;6.07;2.30;;;717.70;1049.60;;;;;;4842027;29;20116;-77
2021/09/03 12:28:53;;;;;;;4.05;2.40;;;717.70;1100.80;;;;;;4856876;29;20036;-79